Time;durP1;ratioP1;P1;durP2;ratioP2;P2;SDS_P1;SDS_P2;PMS_P1;PMS_P2;Temp;Humidity;BMP_temperature;BMP_pressure;BME280_temperature;BME280_humidity;BME280_pressure;Samples;Min_cycle;Max_cycle;Signal;HPM_P1;HPM_P2
2022/05/06 00:00:27;;;;;;;2.30;1.20;;;;;;;15.96;57.45;99729.41;5050006;28;20170;-85
2022/05/06 00:02:52;;;;;;;4.10;1.93;;;;;;;15.93;57.91;99720.88;5049040;28;20636;-86
2022/05/06 00:05:18;;;;;;;3.50;1.87;;;;;;;15.88;57.98;99725.56;5049976;28;20201;-86
2022/05/06 00:07:43;;;;;;;10.10;2.03;;;;;;;15.83;58.00;99715.31;5049953;28;20168;-86
2022/05/06 00:10:10;;;;;;;2.50;1.37;;;;;;;15.69;58.83;99715.38;5048993;28;20170;-86
2022/05/06 00:12:35;;;;;;;2.33;1.43;;;;;;;15.70;59.12;99713.53;5050133;28;20541;-86
2022/05/06 00:15:01;;;;;;;6.57;2.50;;;;;;;15.75;58.62;99714.09;5050098;28;20184;-85
2022/05/06 00:17:26;;;;;;;2.70;1.67;;;;;;;15.72;59.04;99716.97;5049748;28;20195;-85
2022/05/06 00:19:52;;;;;;;3.03;1.57;;;;;;;15.63;59.06;99718.38;5049779;28;20623;-86
2022/05/06 00:22:18;;;;;;;6.57;1.30;;;;;;;15.63;59.15;99715.75;5049750;28;20192;-85
2022/05/06 00:24:43;;;;;;;6.43;1.80;;;;;;;15.70;59.59;99716.19;5049747;28;20182;-85
2022/05/06 00:27:09;;;;;;;2.67;1.53;;;;;;;15.71;59.75;99720.53;5049789;28;20175;-85
2022/05/06 00:29:35;;;;;;;4.83;2.00;;;;;;;15.72;59.64;99720.44;5049674;28;20252;-85
2022/05/06 00:32:02;;;;;;;4.03;2.03;;;;;;;15.66;59.89;99715.56;5049739;28;20210;-85
2022/05/06 00:34:27;;;;;;;3.63;2.23;;;;;;;15.60;60.18;99715.09;5048695;28;20183;-86
2022/05/06 00:36:55;;;;;;;7.13;2.70;;;;;;;15.55;60.32;99714.53;5048642;28;20541;-86
2022/05/06 00:39:20;;;;;;;5.60;2.60;;;;;;;15.61;60.65;99708.88;5049620;28;20166;-86
2022/05/06 00:41:46;;;;;;;3.43;1.63;;;;;;;15.65;60.56;99711.19;5049543;28;20244;-86
2022/05/06 00:44:11;;;;;;;5.00;2.30;;;;;;;15.58;60.72;99714.34;5048561;28;20175;-85
2022/05/06 00:46:37;;;;;;;4.93;2.27;;;;;;;15.57;61.08;99715.28;5048580;28;20172;-86
2022/05/06 00:49:06;;;;;;;3.70;2.50;;;;;;;15.63;60.50;99715.75;5049766;28;20589;-86
2022/05/06 00:51:31;;;;;;;5.90;2.20;;;;;;;15.59;60.21;99723.97;5049434;28;20171;-85
2022/05/06 00:53:57;;;;;;;3.00;1.70;;;;;;;15.58;60.52;99719.63;5048606;28;20209;-86
2022/05/06 00:56:24;;;;;;;3.60;1.97;;;;;;;15.47;61.07;99709.75;5051869;28;20205;-85
2022/05/06 00:58:51;;;;;;;4.23;1.87;;;;;;;15.30;60.94;99709.94;5053082;28;20166;-86
2022/05/06 01:01:18;;;;;;;3.03;1.80;;;;;;;15.17;61.19;99712.47;5052697;28;20214;-85
2022/05/06 01:03:44;;;;;;;4.70;1.77;;;;;;;15.08;61.41;99709.56;5052984;28;20164;-85
2022/05/06 01:06:13;;;;;;;4.97;2.37;;;;;;;15.07;61.33;99716.63;5053257;28;20217;-85
2022/05/06 01:08:39;;;;;;;4.73;2.30;;;;;;;15.00;61.61;99719.72;5052930;28;20171;-85
2022/05/06 01:11:06;;;;;;;3.20;1.60;;;;;;;15.06;61.09;99724.66;5053083;28;20217;-85
2022/05/06 01:13:37;;;;;;;2.60;1.60;;;;;;;15.05;60.44;99717.66;5051567;28;20175;-86
2022/05/06 01:16:03;;;;;;;2.37;1.67;;;;;;;14.89;61.02;99706.34;5053016;28;20550;-85
2022/05/06 01:18:28;;;;;;;4.63;1.67;;;;;;;14.76;61.47;99703.59;5052966;28;20214;-85
2022/05/06 01:20:56;;;;;;;3.90;1.53;;;;;;;14.70;61.70;99701.34;5052665;28;20629;-86
2022/05/06 01:23:23;;;;;;;3.57;1.40;;;;;;;14.73;61.56;99709.06;5051434;28;20178;-85
2022/05/06 01:25:48;;;;;;;2.83;1.40;;;;;;;14.77;60.91;99718.50;5052299;28;20173;-86
2022/05/06 01:28:14;;;;;;;3.47;1.50;;;;;;;14.67;60.89;99712.09;5052615;28;20181;-85
2022/05/06 01:30:42;;;;;;;4.10;1.67;;;;;;;14.57;61.02;99710.94;5052246;28;20177;-85
2022/05/06 01:33:10;;;;;;;2.90;1.70;;;;;;;14.51;61.32;99711.31;5052290;28;20175;-85
2022/05/06 01:35:45;;;;;;;3.03;1.60;;;;;;;14.42;62.11;99706.56;5052542;28;20177;-86
2022/05/06 01:38:18;;;;;;;3.67;2.00;;;;;;;14.39;61.92;99698.81;5052406;28;20569;-86
2022/05/06 01:40:52;;;;;;;4.57;1.90;;;;;;;14.38;61.42;99699.78;5052159;28;20201;-85
2022/05/06 01:43:20;;;;;;;5.20;1.83;;;;;;;14.36;61.64;99705.13;5052511;28;20162;-85
2022/05/06 01:45:48;;;;;;;5.00;2.17;;;;;;;14.35;61.87;99700.81;5052026;28;20189;-85
2022/05/06 01:48:16;;;;;;;3.80;1.93;;;;;;;14.38;61.99;99699.78;5052303;28;20172;-85
2022/05/06 01:50:43;;;;;;;5.03;2.40;;;;;;;14.30;62.05;99701.97;5051303;28;20533;-85
2022/05/06 01:53:09;;;;;;;2.60;1.30;;;;;;;14.25;61.94;99709.31;5051839;28;20248;-85
2022/05/06 01:55:35;;;;;;;3.03;1.87;;;;;;;14.22;62.16;99704.22;5052182;28;20178;-85
2022/05/06 01:58:00;;;;;;;3.37;1.63;;;;;;;14.18;62.31;99704.38;5051744;28;20222;-85
2022/05/06 02:00:26;;;;;;;3.53;1.57;;;;;;;14.16;62.32;99701.00;5051762;28;20171;-85
2022/05/06 02:02:52;;;;;;;4.23;1.50;;;;;;;14.15;61.99;99699.28;5051976;28;20176;-85
2022/05/06 02:05:17;;;;;;;6.30;1.87;;;;;;;14.04;61.81;99700.88;5051146;28;20194;-85
2022/05/06 02:07:44;;;;;;;4.30;1.80;;;;;;;14.00;62.51;99705.47;5050110;28;20181;-85
2022/05/06 02:10:10;;;;;;;5.30;1.97;;;;;;;13.93;62.02;99704.13;5051629;28;20254;-85
2022/05/06 02:12:36;;;;;;;2.53;1.50;;;;;;;13.91;61.98;99706.00;5051612;28;20170;-85
2022/05/06 02:15:02;;;;;;;3.20;1.63;;;;;;;13.93;61.40;99709.38;5051511;28;20628;-85
2022/05/06 02:17:27;;;;;;;6.00;2.10;;;;;;;13.86;62.27;99710.66;5051420;28;20197;-85
2022/05/06 02:19:53;;;;;;;6.23;1.40;;;;;;;13.86;61.90;99715.09;5051491;28;20166;-85
2022/05/06 02:22:18;;;;;;;2.40;1.67;;;;;;;13.82;61.83;99711.78;5050499;28;20190;-85
2022/05/06 02:24:44;;;;;;;3.50;1.63;;;;;;;13.79;61.89;99705.81;5051412;28;20169;-85
2022/05/06 02:27:12;;;;;;;5.90;1.80;;;;;;;13.78;61.47;99706.78;5051363;28;20177;-85
2022/05/06 02:29:38;;;;;;;4.00;1.63;;;;;;;13.74;61.53;99710.50;5051335;28;20174;-85
2022/05/06 02:34:48;;;;;;;3.30;1.73;;;;;;;13.67;62.60;99719.69;5051540;28;20169;-84
2022/05/06 02:37:14;;;;;;;4.37;2.07;;;;;;;13.56;62.57;99715.03;5051371;28;20198;-85
2022/05/06 02:39:39;;;;;;;4.07;1.73;;;;;;;13.52;62.36;99714.31;5050228;28;20654;-85
2022/05/06 02:42:06;;;;;;;5.43;2.33;;;;;;;13.53;62.36;99713.41;5050155;28;20631;-85
2022/05/06 02:44:31;;;;;;;3.97;2.13;;;;;;;13.50;62.77;99712.72;5051629;28;20169;-85
2022/05/06 02:46:56;;;;;;;3.87;2.00;;;;;;;13.55;62.47;99715.94;5051595;28;20165;-85
2022/05/06 02:49:22;;;;;;;4.73;2.40;;;;;;;13.56;62.56;99715.03;5051266;28;20617;-85
2022/05/06 02:51:49;;;;;;;2.80;1.50;;;;;;;13.48;62.54;99728.63;5050989;28;20576;-85
2022/05/06 02:54:21;;;;;;;6.77;2.30;;;;;;;13.37;63.00;99719.59;5049803;28;20274;-85
2022/05/06 02:56:46;;;;;;;3.30;1.67;;;;;;;13.26;63.77;99727.25;5049901;28;20209;-85
2022/05/06 02:59:12;;;;;;;4.77;1.90;;;;;;;13.21;63.67;99721.34;5049922;28;20594;-85
2022/05/06 03:01:37;;;;;;;2.70;1.63;;;;;;;13.19;63.53;99731.97;5050839;28;20181;-85
2022/05/06 03:04:03;;;;;;;4.07;1.70;;;;;;;13.13;63.83;99740.19;5049842;28;20178;-85
2022/05/06 03:06:28;;;;;;;5.50;1.93;;;;;;;13.17;63.26;99746.16;5051023;28;20169;-85
2022/05/06 03:08:53;;;;;;;3.27;1.60;;;;;;;13.31;62.13;99743.66;5049819;28;20180;-85
2022/05/06 03:11:19;;;;;;;3.60;1.70;;;;;;;13.30;61.58;99736.66;5051243;28;20236;-85
2022/05/06 03:13:44;;;;;;;4.43;2.10;;;;;;;13.15;61.75;99750.66;5049957;28;20177;-84
2022/05/06 03:16:10;;;;;;;3.60;1.87;;;;;;;13.11;61.95;99752.59;5049959;28;20177;-85
2022/05/06 03:18:35;;;;;;;4.13;1.93;;;;;;;13.10;62.27;99753.50;5050562;28;20541;-85
2022/05/06 03:21:01;;;;;;;4.90;1.30;;;;;;;13.16;62.25;99753.19;5049706;28;20630;-85
2022/05/06 03:23:26;;;;;;;4.07;2.00;;;;;;;13.16;62.24;99762.88;5050681;28;20542;-85
2022/05/06 03:25:52;;;;;;;3.77;1.90;;;;;;;13.09;62.62;99759.72;5050501;28;20685;-85
2022/05/06 03:28:17;;;;;;;4.17;1.87;;;;;;;12.90;63.71;99762.44;5050804;28;20178;-85
2022/05/06 03:30:47;;;;;;;5.57;1.70;;;;;;;12.66;65.30;99753.16;5051045;28;20175;-85
2022/05/06 03:33:15;;;;;;;5.43;1.87;;;;;;;12.53;66.70;99759.13;5050998;28;20177;-85
2022/05/06 03:35:40;;;;;;;5.37;2.23;;;;;;;12.71;66.73;99764.31;5050435;28;20181;-85
2022/05/06 03:38:07;;;;;;;4.87;2.03;;;;;;;12.80;67.03;99770.88;5050301;28;20268;-85
2022/05/06 03:40:33;;;;;;;4.03;1.73;;;;;;;12.78;67.33;99775.38;5049403;28;20610;-85
2022/05/06 03:42:59;;;;;;;3.30;1.80;;;;;;;12.83;68.06;99776.84;5050539;28;20525;-85
2022/05/06 03:45:25;;;;;;;6.07;2.17;;;;;;;12.89;67.48;99783.56;5050301;28;20173;-84
2022/05/06 03:47:52;;;;;;;4.53;2.03;;;;;;;12.95;67.48;99768.31;5050225;28;20192;-85
2022/05/06 03:53:02;;;;;;;3.60;1.57;;;;;;;13.07;67.69;99771.25;5050308;28;20205;-84
2022/05/06 03:55:28;;;;;;;5.03;2.27;;;;;;;13.17;67.42;99770.69;5050486;28;20239;-85
2022/05/06 03:57:53;;;;;;;3.47;2.00;;;;;;;13.29;67.28;99772.66;5050076;28;20632;-85
2022/05/06 04:00:19;;;;;;;3.50;1.93;;;;;;;13.34;67.48;99777.69;5050056;28;20669;-84
2022/05/06 04:02:46;;;;;;;7.33;2.90;;;;;;;13.43;67.36;99774.56;5049456;28;20177;-85
2022/05/06 04:05:12;;;;;;;5.57;1.77;;;;;;;13.51;66.97;99780.28;5050050;28;20223;-85
2022/05/06 04:07:37;;;;;;;3.97;2.40;;;;;;;13.61;67.21;99775.34;5050115;28;20177;-85
2022/05/06 04:10:03;;;;;;;3.47;2.17;;;;;;;13.73;66.70;99774.69;5050038;28;20256;-85
2022/05/06 04:12:29;;;;;;;5.20;2.30;;;;;;;13.86;67.02;99776.53;5050485;28;20179;-84
2022/05/06 04:14:54;;;;;;;3.93;2.30;;;;;;;14.04;66.54;99780.81;5050547;28;20165;-85
2022/05/06 04:17:23;;;;;;;6.63;2.03;;;;;;;14.30;66.40;99773.19;5049797;28;20198;-85
2022/05/06 04:25:18;;;;;;;7.67;2.07;;;;;;;14.79;66.78;99785.22;5050649;28;20249;-85
2022/05/06 04:27:44;;;;;;;6.80;2.53;;;;;;;14.96;65.34;99789.53;5048814;28;20601;-85
2022/05/06 04:30:11;;;;;;;4.27;1.50;;;;;;;15.13;63.55;99773.50;5051767;28;20257;-86
2022/05/06 04:32:36;;;;;;;3.33;2.00;;;;;;;15.25;61.70;99778.03;5053179;28;20170;-85
2022/05/06 04:35:06;;;;;;;4.43;2.13;;;;;;;15.44;60.44;99789.16;5053139;28;20679;-85
2022/05/06 04:37:32;;;;;;;3.67;2.23;;;;;;;15.62;59.59;99787.19;5053638;28;20291;-85
2022/05/06 04:39:58;;;;;;;4.13;2.03;;;;;;;15.73;60.26;99790.84;5053377;28;20179;-85
2022/05/06 04:42:24;;;;;;;4.33;2.23;;;;;;;15.87;59.53;99787.34;5052059;28;20224;-85
2022/05/06 04:44:49;;;;;;;5.03;1.93;;;;;;;15.96;58.11;99786.75;5052047;28;20183;-85
2022/05/06 04:47:15;;;;;;;5.43;3.00;;;;;;;16.19;59.12;99791.41;5053242;28;20176;-86
2022/05/06 04:49:40;;;;;;;6.43;2.87;;;;;;;16.39;59.65;99787.44;5052901;28;20594;-86
2022/05/06 04:52:06;;;;;;;5.77;3.10;;;;;;;16.58;59.35;99788.81;5052004;28;20177;-86
2022/05/06 04:54:31;;;;;;;3.87;2.10;;;;;;;16.66;59.40;99788.31;5052786;28;20201;-85
2022/05/06 04:56:57;;;;;;;7.33;2.60;;;;;;;16.94;58.79;99782.84;5052694;28;20207;-86
2022/05/06 04:59:22;;;;;;;3.37;1.87;;;;;;;17.26;58.49;99777.97;5052726;28;20173;-85
2022/05/06 05:01:48;;;;;;;3.10;1.70;;;;;;;17.56;56.31;99780.28;5052719;28;20260;-86
2022/05/06 05:04:14;;;;;;;3.33;1.80;;;;;;;17.87;54.59;99787.78;5052671;28;20182;-85
2022/05/06 05:06:40;;;;;;;3.37;1.87;;;;;;;18.16;52.91;99786.47;5052937;28;20238;-86
2022/05/06 05:09:06;;;;;;;3.97;1.90;;;;;;;18.47;53.13;99790.41;5052596;28;20170;-85
2022/05/06 05:11:34;;;;;;;5.70;2.27;;;;;;;18.79;51.27;99788.81;5052636;28;20174;-86
2022/05/06 05:14:00;;;;;;;3.57;1.50;;;;;;;18.83;49.83;99782.34;5052572;28;20178;-85
2022/05/06 05:16:27;;;;;;;4.67;2.10;;;;;;;18.87;49.15;99783.78;5052464;28;20166;-85
2022/05/06 05:18:53;;;;;;;3.87;1.53;;;;;;;18.92;49.15;99786.06;5053088;28;20199;-86
2022/05/06 05:21:18;;;;;;;7.60;2.23;;;;;;;18.95;48.27;99789.34;5052664;28;20246;-86
2022/05/06 05:23:45;;;;;;;3.30;1.80;;;;;;;18.91;49.38;99785.25;5052651;28;20178;-86
2022/05/06 05:26:10;;;;;;;4.40;1.87;;;;;;;19.01;49.75;99782.72;5052635;28;20177;-86
2022/05/06 05:28:36;;;;;;;4.63;1.87;;;;;;;18.97;48.10;99784.75;5052302;28;20184;-86
2022/05/06 05:31:02;;;;;;;8.70;1.53;;;;;;;18.95;48.42;99789.34;5052270;28;20168;-86
2022/05/06 05:33:28;;;;;;;3.07;1.27;;;;;;;19.05;48.49;99784.16;5052756;28;20197;-86
2022/05/06 05:35:53;;;;;;;3.50;1.43;;;;;;;19.11;47.90;99781.03;5052490;28;20170;-86
2022/05/06 05:38:19;;;;;;;5.77;1.40;;;;;;;19.14;46.58;99782.63;5052038;28;20340;-86
2022/05/06 05:40:44;;;;;;;2.67;1.20;;;;;;;19.25;46.86;99795.94;5051893;28;20170;-86
2022/05/06 05:48:19;;;;;;;4.17;1.33;;;;;;;19.16;47.09;99791.31;5051114;28;20385;-86
2022/05/06 05:48:39;;;;;;;3.33;1.47;;;;;;;19.31;48.11;99788.31;5052524;28;20524;-86
2022/05/06 05:51:05;;;;;;;3.73;1.50;;;;;;;19.31;47.93;99779.50;5051232;28;20182;-86
2022/05/06 05:53:32;;;;;;;3.47;1.50;;;;;;;19.12;47.83;99787.22;5052050;28;20193;-86
2022/05/06 05:55:57;;;;;;;8.83;1.50;;;;;;;19.09;47.92;99790.94;5051866;28;20172;-86
2022/05/06 05:58:23;;;;;;;4.43;1.33;;;;;;;19.18;48.17;99787.56;5051760;28;20197;-86
2022/05/06 06:00:48;;;;;;;2.67;1.60;;;;;;;19.37;47.74;99781.66;5051833;28;20511;-86
2022/05/06 06:03:14;;;;;;;5.60;2.23;;;;;;;19.31;47.12;99790.16;5052135;28;20170;-86
2022/05/06 06:05:39;;;;;;;6.70;2.07;;;;;;;19.41;47.40;99788.50;5052256;28;20185;-86
2022/05/06 06:08:05;;;;;;;4.57;1.67;;;;;;;19.56;46.70;99787.28;5051974;28;20174;-86
2022/05/06 06:10:30;;;;;;;5.73;2.70;;;;;;;19.75;46.04;99787.50;5050713;28;20198;-86
2022/05/06 06:12:57;;;;;;;5.93;3.00;;;;;;;19.91;46.82;99789.78;5050671;28;20188;-86
2022/05/06 06:15:22;;;;;;;7.23;2.90;;;;;;;20.06;43.94;99786.72;5051936;28;20201;-86
2022/05/06 06:17:48;;;;;;;8.27;2.63;;;;;;;20.10;45.14;99792.63;5051571;28;20232;-86
2022/05/06 06:20:13;;;;;;;7.33;2.93;;;;;;;19.99;43.23;99798.00;5050633;28;20629;-87
2022/05/06 06:22:39;;;;;;;11.73;3.40;;;;;;;19.85;45.14;99793.78;5051520;28;20230;-87
2022/05/06 06:25:05;;;;;;;6.70;2.63;;;;;;;20.06;45.41;99797.38;5051610;28;20174;-87
2022/05/06 06:27:31;;;;;;;5.23;2.30;;;;;;;20.35;44.88;99796.84;5050593;28;20178;-87
2022/05/06 06:29:57;;;;;;;5.77;2.70;;;;;;;20.65;42.74;99794.31;5051738;28;20266;-87
2022/05/06 06:32:22;;;;;;;4.53;2.57;;;;;;;20.75;43.94;99797.91;5051355;28;20656;-88
2022/05/06 06:34:48;;;;;;;7.17;3.07;;;;;;;20.90;42.20;99793.94;5050730;28;20193;-86
2022/05/06 06:37:14;;;;;;;6.10;2.77;;;;;;;20.56;42.56;99793.25;5051345;28;20201;-87
2022/05/06 06:39:40;;;;;;;6.50;2.30;;;;;;;20.54;42.69;99797.03;5051266;28;20178;-88
2022/05/06 06:42:05;;;;;;;7.73;2.80;;;;;;;20.52;43.22;99798.97;5051308;28;20235;-87
2022/05/06 06:44:31;;;;;;;8.13;2.43;;;;;;;20.84;43.74;99799.78;5051222;28;20178;-87
2022/05/06 06:46:56;;;;;;;4.93;2.10;;;;;;;21.14;42.93;99791.91;5051148;28;20170;-87
2022/05/06 06:49:22;;;;;;;6.17;2.13;;;;;;;21.51;43.01;99791.38;5051028;28;20174;-87
2022/05/06 06:51:47;;;;;;;3.17;1.63;;;;;;;21.63;43.26;99796.47;5050498;28;20188;-87
2022/05/06 06:54:13;;;;;;;6.27;2.07;;;;;;;21.89;41.69;99783.53;5051030;28;20696;-88
2022/05/06 06:56:39;;;;;;;5.83;2.07;;;;;;;21.96;40.97;99790.84;5050884;28;20201;-89
2022/05/06 06:59:05;;;;;;;4.17;1.63;;;;;;;21.82;40.55;99787.69;5050018;28;20212;-87
2022/05/06 07:01:32;;;;;;;4.53;1.80;;;;;;;21.84;40.98;99793.75;5049915;28;20566;-88
2022/05/06 07:03:58;;;;;;;3.70;1.80;;;;;;;21.82;40.49;99787.69;5050741;28;20268;-88
2022/05/06 07:11:55;;;;;;;3.33;1.33;;;;;;;21.77;43.66;99789.94;5051201;28;20165;-87
2022/05/06 07:14:21;;;;;;;5.83;1.60;;;;;;;21.64;41.96;99794.66;5051176;28;20173;-87
2022/05/06 07:16:48;;;;;;;6.87;2.20;;;;;;;21.63;43.66;99790.28;5050526;28;20194;-88
2022/05/06 07:19:14;;;;;;;4.57;1.90;;;;;;;21.71;44.27;99783.31;5050553;28;20217;-87
2022/05/06 07:21:39;;;;;;;3.27;1.67;;;;;;;21.67;44.25;99783.72;5050518;28;20632;-88
2022/05/06 07:24:05;;;;;;;11.43;2.20;;;;;;;21.94;43.22;99776.81;5050759;28;20178;-88
2022/05/06 07:26:31;;;;;;;5.13;1.80;;;;;;;22.21;44.00;99776.16;5050422;28;20252;-87
2022/05/06 07:28:56;;;;;;;4.20;1.80;;;;;;;22.40;43.91;99776.19;5051021;28;20261;-87
2022/05/06 07:31:22;;;;;;;3.10;2.03;;;;;;;22.75;44.43;99778.31;5049470;28;20209;-88
2022/05/06 07:33:48;;;;;;;9.10;1.77;;;;;;;22.85;43.75;99770.28;5050642;28;20227;-88
2022/05/06 07:36:13;;;;;;;3.13;1.93;;;;;;;22.81;43.44;99782.25;5050343;28;20632;-88
2022/05/06 07:38:39;;;;;;;9.37;1.97;;;;;;;22.66;43.29;99772.97;5049274;28;20210;-87
2022/05/06 07:41:04;;;;;;;3.37;1.90;;;;;;;22.51;44.92;99770.69;5050506;28;20238;-88
2022/05/06 07:43:30;;;;;;;4.50;1.90;;;;;;;22.87;44.94;99771.84;5050223;28;20170;-87
2022/05/06 07:45:56;;;;;;;4.53;2.60;;;;;;;22.91;44.03;99773.22;5050591;28;20177;-87
2022/05/06 07:48:21;;;;;;;4.90;2.47;;;;;;;22.97;43.65;99778.00;5049387;28;20174;-88
2022/05/06 07:50:48;;;;;;;5.80;3.40;;;;;;;22.84;44.14;99772.13;5050527;28;20190;-88
2022/05/06 07:53:15;;;;;;;3.60;1.80;;;;;;;23.08;45.49;99774.31;5050511;28;20238;-88
2022/05/06 07:55:41;;;;;;;4.50;2.30;;;;;;;22.83;45.03;99780.25;5050477;28;20166;-88
2022/05/06 07:58:06;;;;;;;3.33;2.00;;;;;;;23.10;45.04;99778.53;5049016;28;20202;-87
2022/05/06 08:00:33;;;;;;;3.23;1.90;;;;;;;23.42;43.64;99767.50;5050301;28;20170;-88
2022/05/06 08:05:47;;;;;;;6.67;2.07;;;;;;;23.71;44.00;99772.72;5053457;28;20173;-89
2022/05/06 08:08:14;;;;;;;3.40;1.73;;;;;;;23.35;42.67;99786.94;5053512;28;20176;-89
2022/05/06 08:10:40;;;;;;;3.67;2.00;;;;;;;23.20;43.17;99792.72;5052819;28;20620;-89
2022/05/06 08:13:06;;;;;;;4.90;2.50;;;;;;;23.21;42.78;99789.09;5053444;28;20180;-89
2022/05/06 08:15:31;;;;;;;3.47;1.57;;;;;;;23.29;42.52;99798.19;5053411;28;20177;-87
2022/05/06 08:17:57;;;;;;;4.67;2.13;;;;;;;23.62;43.10;99789.66;5052553;28;20635;-89
2022/05/06 08:20:22;;;;;;;8.97;4.37;;;;;;;23.54;42.41;99789.56;5053342;28;20629;-89
2022/05/06 08:22:48;;;;;;;4.83;2.30;;;;;;;23.24;41.25;99804.00;5052344;28;20177;-89
2022/05/06 08:25:14;;;;;;;4.73;2.13;;;;;;;23.47;42.50;99793.81;5053295;28;20170;-89
2022/05/06 08:27:42;;;;;;;4.40;1.93;;;;;;;23.51;41.82;99792.50;5053265;28;20174;-88
2022/05/06 08:30:09;;;;;;;4.53;1.87;;;;;;;23.31;41.69;99796.22;5052303;28;20186;-90
2022/05/06 08:32:36;;;;;;;5.17;2.50;;;;;;;22.75;42.53;99804.19;5053246;28;20311;-89
2022/05/06 08:35:04;;;;;;;4.37;1.90;;;;;;;22.92;41.56;99795.47;5053431;28;20198;-90
2022/05/06 08:37:30;;;;;;;4.60;1.50;;;;;;;23.12;43.29;99791.75;5053023;28;20284;-89
2022/05/06 08:39:56;;;;;;;1.80;1.20;;;;;;;23.29;41.10;99795.53;5053112;28;20256;-88
2022/05/06 08:42:22;;;;;;;3.30;1.33;;;;;;;23.55;40.98;99799.28;5052108;28;20266;-89
2022/05/06 08:53:03;;;;;;;1.90;1.17;;;;;;;23.65;40.68;99806.28;5053102;28;20557;-89
2022/05/06 08:55:28;;;;;;;2.47;1.20;;;;;;;23.92;40.98;99793.91;5053151;28;20236;-88
2022/05/06 08:57:54;;;;;;;2.50;1.17;;;;;;;24.01;40.67;99795.66;5051817;28;20288;-88
2022/05/06 09:00:28;;;;;;;3.17;1.20;;;;;;;24.38;39.03;99793.78;5053302;28;20206;-88
2022/05/06 09:02:53;;;;;;;2.53;1.03;;;;;;;24.56;39.78;99793.75;5052725;28;20265;-89
2022/05/06 09:05:20;;;;;;;2.43;1.13;;;;;;;24.69;39.17;99792.38;5052382;28;20254;-88
2022/05/06 09:08:02;;;;;;;4.07;1.30;;;;;;;24.89;39.90;99796.63;5051948;28;20170;-87
2022/05/06 09:10:29;;;;;;;83.00;24.83;;;;;;;24.43;38.84;99792.31;5051647;28;20177;-88
2022/05/06 09:12:56;;;;;;;97.27;30.87;;;;;;;24.55;39.89;99786.75;5052915;28;20185;-88
2022/05/06 09:18:08;;;;;;;14.10;4.60;;;;;;;24.90;39.28;99778.69;5052894;28;20203;-88
2022/05/06 09:20:35;;;;;;;7.90;2.87;;;;;;;25.13;38.31;99779.03;5052628;28;20644;-88
2022/05/06 09:23:28;;;;;;;28.90;9.93;;;;;;;25.06;37.41;99773.44;5052723;28;20238;-89
2022/05/06 09:25:55;;;;;;;11.73;4.93;;;;;;;25.24;35.25;99770.69;5052063;28;20328;-89
2022/05/06 09:28:29;;;;;;;6.37;1.67;;;;;;;25.31;36.88;99764.56;5052220;28;20184;-88
2022/05/06 09:30:59;;;;;;;2.37;1.20;;;;;;;25.42;36.46;99766.13;5051626;28;20170;-87
2022/05/06 09:33:28;;;;;;;6.87;1.60;;;;;;;25.29;33.72;99765.72;5052845;28;20174;-88
2022/05/06 09:35:56;;;;;;;8.30;1.77;;;;;;;25.35;36.12;99759.69;5051537;28;20202;-89
2022/05/06 09:38:22;;;;;;;1.80;0.63;;;;;;;25.44;33.94;99756.91;5051986;28;20545;-88
2022/05/06 09:40:47;;;;;;;1.63;0.90;;;;;;;25.60;34.82;99757.00;5052191;28;20170;-88
2022/05/06 09:43:17;;;;;;;2.60;1.27;;;;;;;25.59;35.68;99757.19;5051166;28;20178;-87
2022/05/06 09:45:44;;;;;;;2.50;1.00;;;;;;;25.65;35.01;99762.72;5052032;28;20188;-89
2022/05/06 09:48:13;;;;;;;5.33;1.53;;;;;;;25.13;32.94;99750.34;5051362;28;20184;-87
2022/05/06 09:50:43;;;;;;;2.67;1.30;;;;;;;25.00;35.68;99758.81;5051942;28;20194;-87
2022/05/06 09:53:12;;;;;;;2.73;0.97;;;;;;;25.37;33.21;99752.31;5051806;28;20654;-88
2022/05/06 09:55:46;;;;;;;1.97;0.93;;;;;;;25.75;35.02;99754.56;5051519;28;20182;-87
2022/05/06 09:58:13;;;;;;;2.55;1.00;;;;;;;26.04;34.06;99736.19;5052868;28;20281;-87
2022/05/06 10:00:39;;;;;;;3.55;1.33;;;;;;;26.24;32.47;99732.22;5051774;28;20169;-88
2022/05/06 10:03:06;;;;;;;1.33;0.73;;;;;;;26.44;31.29;99729.22;5051153;28;20178;-87
2022/05/06 10:05:36;;;;;;;1.33;0.60;;;;;;;26.65;26.39;99733.06;5052068;28;20170;-87
2022/05/06 10:08:14;;;;;;;5.10;1.25;;;;;;;26.93;30.06;99727.38;5051003;28;20704;-89
2022/05/06 10:10:45;;;;;;;2.88;0.85;;;;;;;27.19;30.07;99725.31;5050802;28;20177;-86
2022/05/06 10:13:19;;;;;;;3.28;0.77;;;;;;;27.38;31.05;99714.97;5051323;28;20174;-87
2022/05/06 10:15:49;;;;;;;1.52;0.82;;;;;;;27.10;27.78;99732.56;5051843;28;20169;-87
2022/05/06 10:18:32;;;;;;;1.63;0.65;;;;;;;26.82;27.64;99731.25;5051706;28;20250;-86
2022/05/06 10:20:57;;;;;;;1.08;0.70;;;;;;;26.70;27.43;99719.16;5051457;28;20170;-86
2022/05/06 10:23:42;;;;;;;2.20;0.70;;;;;;;26.90;28.86;99717.81;5051475;28;20610;-87
2022/05/06 10:26:08;;;;;;;2.97;0.82;;;;;;;27.04;28.31;99722.50;5050229;28;20223;-87
2022/05/06 10:34:08;;;;;;;2.45;0.70;;;;;;;26.90;25.86;99707.03;5051571;28;20273;-87
2022/05/06 10:36:44;;;;;;;1.58;0.70;;;;;;;26.79;25.65;99710.06;5050578;28;20182;-87
2022/05/06 10:39:35;;;;;;;6.40;1.67;;;;;;;26.89;26.03;99707.22;5050214;28;20568;-87
2022/05/06 10:42:03;;;;;;;2.58;0.95;;;;;;;27.00;25.79;99710.38;5051770;28;20154;-87
2022/05/06 10:44:32;;;;;;;2.65;0.80;;;;;;;27.11;26.68;99710.03;5050215;27;20178;-87
2022/05/06 10:46:58;;;;;;;3.13;1.17;;;;;;;27.04;27.03;99700.97;5051347;28;20181;-87
2022/05/06 10:49:39;;;;;;;6.53;2.55;;;;;;;27.03;25.07;99704.66;5051323;28;20174;-87
2022/05/06 10:52:18;;;;;;;43.92;16.02;;;;;;;27.05;25.91;99694.56;5050100;28;20178;-87
2022/05/06 10:54:47;;;;;;;5.20;1.65;;;;;;;26.99;26.92;99697.94;5049976;28;20619;-87
2022/05/06 10:57:13;;;;;;;1.75;0.77;;;;;;;26.96;25.61;99692.91;5050177;28;20208;-87
2022/05/06 10:59:54;;;;;;;1.92;0.65;;;;;;;26.92;27.56;99680.81;5051485;28;20174;-87
2022/05/06 11:02:25;;;;;;;3.13;1.25;;;;;;;26.69;27.79;99682.50;5050857;28;20181;-86
2022/05/06 11:04:57;;;;;;;1.42;0.80;;;;;;;26.51;27.23;99676.44;5049830;28;20173;-87
2022/05/06 11:07:23;;;;;;;2.00;0.90;;;;;;;26.38;28.69;99676.13;5050129;28;20177;-88
2022/05/06 11:09:48;;;;;;;2.33;0.98;;;;;;;26.47;28.02;99681.31;5051044;28;20170;-86
2022/05/06 11:12:31;;;;;;;1.33;0.73;;;;;;;26.09;28.68;99679.25;5049994;28;20200;-86
2022/05/06 11:14:57;;;;;;;5.10;1.17;;;;;;;26.19;29.12;99670.06;5050622;28;20184;-87
2022/05/06 11:17:24;;;;;;;2.03;1.13;;;;;;;26.69;27.92;99669.88;5049907;28;20208;-86
2022/05/06 11:19:53;;;;;;;3.05;1.20;;;;;;;27.25;27.59;99660.84;5050010;28;20185;-87
2022/05/06 11:22:20;;;;;;;5.60;0.90;;;;;;;27.56;27.86;99663.63;5050558;28;20177;-86
2022/05/06 11:24:46;;;;;;;2.67;1.00;;;;;;;27.69;26.80;99663.88;5049820;28;20174;-87
2022/05/06 11:27:20;;;;;;;4.25;1.08;;;;;;;27.65;27.05;99656.31;5049557;28;20170;-87
2022/05/06 11:29:56;;;;;;;4.45;1.10;;;;;;;26.94;26.38;99667.19;5049779;28;20177;-86
2022/05/06 11:32:26;;;;;;;2.30;0.88;;;;;;;27.21;27.69;99653.28;5049489;28;20180;-87
2022/05/06 11:34:57;;;;;;;2.95;1.33;;;;;;;26.85;25.33;99652.91;5049711;28;20177;-86
2022/05/06 11:37:27;;;;;;;2.30;1.00;;;;;;;26.15;28.44;99655.28;5049341;28;20208;-86
2022/05/06 11:40:18;;;;;;;4.05;1.10;;;;;;;26.51;27.61;99645.03;5049341;28;20190;-87
2022/05/06 11:42:39;;;;;;;3.08;1.27;;;;;;;26.91;28.92;99636.09;5050808;28;20177;-87
2022/05/06 11:47:49;;;;;;;2.78;0.77;;;;;;;27.56;26.97;99635.84;5050758;28;20696;-89
2022/05/06 11:50:15;;;;;;;3.15;0.90;;;;;;;27.49;25.87;99634.88;5050161;28;20182;-87
2022/05/06 11:52:45;;;;;;;2.60;0.95;;;;;;;27.69;26.76;99630.72;5049313;28;20659;-87
2022/05/06 11:55:11;;;;;;;3.97;1.30;;;;;;;27.90;26.16;99636.31;5049475;28;20222;-87
2022/05/06 11:57:39;;;;;;;3.95;1.20;;;;;;;27.86;26.75;99633.13;5049998;28;20194;-86
2022/05/06 12:00:06;;;;;;;2.13;0.85;;;;;;;27.03;27.01;99634.69;5049650;28;20256;-88
2022/05/06 12:02:32;;;;;;;4.28;0.98;;;;;;;27.16;27.67;99628.75;5049334;28;20192;-87
2022/05/06 12:04:57;;;;;;;2.58;1.05;;;;;;;27.22;26.54;99626.22;5049052;28;20181;-87
2022/05/06 12:07:45;;;;;;;3.40;1.20;;;;;;;27.13;27.12;99612.94;5049291;28;20612;-88
2022/05/06 12:10:32;;;;;;;2.03;0.95;;;;;;;27.40;27.02;99621.47;5048910;28;20178;-88
2022/05/06 12:13:00;;;;;;;1.13;0.73;;;;;;;27.37;25.91;99613.69;5039353;28;20174;-87
2022/05/06 12:15:34;;;;;;;1.75;1.05;;;;;;;27.40;27.43;99605.28;5029305;28;20257;-87